Kralendijk, Caribbean Netherlands

5:49 AM AST on February 06, 2016 (GMT -0400)
Flamingo | | Change Station
CLOSE
Current Station
Airport
Location: Bonaire,
Elevation: 20 ft
Nearby Weather Stations

Elev 20 ft 12.13 °N, 68.28 °W | Updated 54 minutes ago

Partly Cloudy
Partly Cloudy
79 °F
Feels Like 79 °F
N
13
Wind Variable Wind from East

Today
High -- | Low -- °F
--% Chance of Precip.
Yesterday
High -- | Low -- °F
Precip. -- in
Pressure 29.92 in
Visibility 6.2 miles
Clouds Few 1800 ft
Dew Point 72 °F
Humidity 78%
Rainfall 0.00 in
Snow Depth Not available.
6:57 AM 6:36 PM
Waning Crescent, 6% visible
METAR TNCB 060855Z AUTO 09011KT 060V120 9999 FEW018/// 26/22 Q1013
Pressure 29.92 in
Visibility 6.2 miles
Clouds Few 1800 ft
Dew Point 72 °F
Humidity 78%
Rainfall 0.00 in
Snow Depth Not available.
6:57 AM 6:36 PM
Waning Crescent, 6% visible
METAR TNCB 060855Z AUTO 09011KT 060V120 9999 FEW018/// 26/22 Q1013

10-Day Weather Forecast

No radar image for this location.
×

Almanac

Astronomy

Feb. 06, 2016 Rise Set
Actual Time
Civil Twilight
Nautical Twilight
Astronomical Twilight
Moon
Length of Visible Light
Length of Day
Tomorrow will be .
, % of the Moon is Illuminated

Today's Extremes

Country Highs Country Lows

Community

WunderPhotos

Upload Photos

1,890,933 photos uploaded!

WunderBlog® & News

Nearby

Air Quality

  Air Quality AQ Index Pollutant
Not available.

Snow Depth

Station Depth Elevation

Earthquake Activity

City Distance Mag. Time & Date
Minimum magnitude displayed is 2.5.

Coastal Water Temperatures

Place Temperature

Stations

Nearby Weather Stations

Station Location Temp. Windchill Dew Point Humidity Wind Precip. Elev Updated Type